Terminal Aerodrome Forecast
Issued by NWS

Home | Current Version | Previous Version | Text Only | Print | Product List | Glossary On
Versions: 1 2 3 4 5 6 7 8 9 10 11 12 13 14 15 16
000
FTUS45 KBOU 251130
TAFBJC
TAF
KBJC 251130Z 2512/2612 VRB05KT P6SM FEW120
     FM251400 35009KT P6SM FEW120 SCT200
     FM251900 03009KT P6SM FEW080 SCT150 BKN220
     FM252200 10010KT P6SM SCT080 BKN120
      TEMPO 2522/2602 VRB15G25KT -TSRA BKN060CB
     FM260400 17008KT P6SM VCSH SCT050 BKN080
     FM260800 VRB06KT P6SM VCSH SCT020 BKN050=

USA.gov is the U.S. government's official web portal to all federal, state and local government web resources and services.